sensor_id;sensor_type;location;lat;lon;timestamp;pressure;altitude;pressure_sealevel;temperature;humidity
78337;BME280;67610;51.588;7.002;2023-02-15T00:01:38;102198.69;;;5.40;62.88
78337;BME280;67610;51.588;7.002;2023-02-15T00:04:05;102191.03;;;5.37;62.85
78337;BME280;67610;51.588;7.002;2023-02-15T00:06:32;102180.81;;;5.32;62.92
78337;BME280;67610;51.588;7.002;2023-02-15T00:08:57;102187.03;;;5.30;63.01
78337;BME280;67610;51.588;7.002;2023-02-15T00:11:23;102184.44;;;5.30;63.27
78337;BME280;67610;51.588;7.002;2023-02-15T00:14:14;102180.22;;;5.27;63.33
78337;BME280;67610;51.588;7.002;2023-02-15T00:16:42;102181.16;;;5.26;63.22
78337;BME280;67610;51.588;7.002;2023-02-15T00:19:09;102176.09;;;5.23;63.08
78337;BME280;67610;51.588;7.002;2023-02-15T00:21:35;102182.16;;;5.24;63.33
78337;BME280;67610;51.588;7.002;2023-02-15T00:24:03;102182.41;;;5.19;63.20
78337;BME280;67610;51.588;7.002;2023-02-15T00:26:29;102185.16;;;5.16;63.10
78337;BME280;67610;51.588;7.002;2023-02-15T00:28:55;102189.69;;;5.13;63.28
78337;BME280;67610;51.588;7.002;2023-02-15T00:31:20;102189.75;;;5.11;63.49
78337;BME280;67610;51.588;7.002;2023-02-15T00:33:46;102185.56;;;5.09;63.16
78337;BME280;67610;51.588;7.002;2023-02-15T00:36:12;102185.72;;;5.06;63.21
78337;BME280;67610;51.588;7.002;2023-02-15T00:38:38;102183.19;;;5.04;63.42
78337;BME280;67610;51.588;7.002;2023-02-15T00:41:05;102180.75;;;5.01;63.34
78337;BME280;67610;51.588;7.002;2023-02-15T00:43:32;102178.19;;;5.00;63.56
78337;BME280;67610;51.588;7.002;2023-02-15T00:45:58;102183.59;;;4.97;63.83
78337;BME280;67610;51.588;7.002;2023-02-15T00:48:24;102181.97;;;4.94;63.63
78337;BME280;67610;51.588;7.002;2023-02-15T00:50:55;102172.53;;;4.91;63.51
78337;BME280;67610;51.588;7.002;2023-02-15T00:53:22;102176.13;;;4.89;63.89
78337;BME280;67610;51.588;7.002;2023-02-15T00:55:47;102178.00;;;4.87;63.82
78337;BME280;67610;51.588;7.002;2023-02-15T00:58:13;102173.69;;;4.86;63.78
78337;BME280;67610;51.588;7.002;2023-02-15T01:00:41;102173.75;;;4.84;63.70
78337;BME280;67610;51.588;7.002;2023-02-15T01:03:08;102166.09;;;4.81;64.23
78337;BME280;67610;51.588;7.002;2023-02-15T01:05:33;102167.94;;;4.79;63.87
78337;BME280;67610;51.588;7.002;2023-02-15T01:07:59;102172.38;;;4.77;63.94
78337;BME280;67610;51.588;7.002;2023-02-15T01:10:26;102167.31;;;4.74;63.86
78337;BME280;67610;51.588;7.002;2023-02-15T01:12:53;102164.81;;;4.73;64.00
78337;BME280;67610;51.588;7.002;2023-02-15T01:15:19;102167.50;;;4.71;64.02
78337;BME280;67610;51.588;7.002;2023-02-15T01:17:44;102162.44;;;4.68;63.92
78337;BME280;67610;51.588;7.002;2023-02-15T01:20:14;102153.00;;;4.66;63.88
78337;BME280;67610;51.588;7.002;2023-02-15T01:22:40;102160.94;;;4.63;63.93
78337;BME280;67610;51.588;7.002;2023-02-15T01:25:05;102160.19;;;4.61;64.05
78337;BME280;67610;51.588;7.002;2023-02-15T01:27:31;102169.72;;;4.62;64.12
78337;BME280;67610;51.588;7.002;2023-02-15T01:29:56;102158.56;;;4.58;63.85
78337;BME280;67610;51.588;7.002;2023-02-15T01:32:22;102154.44;;;4.54;63.99
78337;BME280;67610;51.588;7.002;2023-02-15T01:34:48;102155.53;;;4.50;64.03
78337;BME280;67610;51.588;7.002;2023-02-15T01:37:13;102151.31;;;4.48;64.32
78337;BME280;67610;51.588;7.002;2023-02-15T01:39:39;102145.34;;;4.46;64.26
78337;BME280;67610;51.588;7.002;2023-02-15T01:42:04;102148.94;;;4.43;64.41
78337;BME280;67610;51.588;7.002;2023-02-15T01:47:16;102148.16;;;4.41;64.33
78337;BME280;67610;51.588;7.002;2023-02-15T01:49:44;102140.34;;;4.41;64.60
78337;BME280;67610;51.588;7.002;2023-02-15T01:52:14;102139.59;;;4.39;64.38
78337;BME280;67610;51.588;7.002;2023-02-15T01:54:43;102140.56;;;4.37;64.38
78337;BME280;67610;51.588;7.002;2023-02-15T01:57:17;102141.56;;;4.34;64.32
78337;BME280;67610;51.588;7.002;2023-02-15T01:59:46;102139.25;;;4.28;64.20
78337;BME280;67610;51.588;7.002;2023-02-15T02:02:16;102129.06;;;4.23;64.21
78337;BME280;67610;51.588;7.002;2023-02-15T02:04:50;102130.03;;;4.21;64.45
78337;BME280;67610;51.588;7.002;2023-02-15T02:07:19;102132.66;;;4.21;64.55
78337;BME280;67610;51.588;7.002;2023-02-15T02:09:46;102129.28;;;4.19;64.65
78337;BME280;67610;51.588;7.002;2023-02-15T02:12:12;102124.06;;;4.19;64.41
78337;BME280;67610;51.588;7.002;2023-02-15T02:14:38;102123.31;;;4.17;64.47
78337;BME280;67610;51.588;7.002;2023-02-15T02:17:27;102116.56;;;4.13;64.57
78337;BME280;67610;51.588;7.002;2023-02-15T02:31:42;102105.88;;;4.00;64.79
78337;BME280;67610;51.588;7.002;2023-02-15T02:42:43;102083.84;;;3.90;64.85
78337;BME280;67610;51.588;7.002;2023-02-15T02:45:16;102075.28;;;3.88;64.44
78337;BME280;67610;51.588;7.002;2023-02-15T02:47:56;102079.63;;;3.88;64.76
78337;BME280;67610;51.588;7.002;2023-02-15T02:50:28;102076.16;;;3.87;64.63
78337;BME280;67610;51.588;7.002;2023-02-15T02:52:55;102075.41;;;3.85;64.64
78337;BME280;67610;51.588;7.002;2023-02-15T02:55:26;102075.50;;;3.84;64.71
78337;BME280;67610;51.588;7.002;2023-02-15T03:00:33;102069.66;;;3.79;64.73
78337;BME280;67610;51.588;7.002;2023-02-15T03:03:05;102072.31;;;3.77;64.84
78337;BME280;67610;51.588;7.002;2023-02-15T03:05:34;102073.28;;;3.75;64.92
78337;BME280;67610;51.588;7.002;2023-02-15T03:08:04;102063.81;;;3.74;64.86
78337;BME280;67610;51.588;7.002;2023-02-15T03:10:35;102061.22;;;3.74;64.84
78337;BME280;67610;51.588;7.002;2023-02-15T03:13:02;102062.13;;;3.73;64.91
78337;BME280;67610;51.588;7.002;2023-02-15T03:15:38;102058.69;;;3.72;65.17
78337;BME280;67610;51.588;7.002;2023-02-15T03:18:28;102060.50;;;3.70;65.19
78337;BME280;67610;51.588;7.002;2023-02-15T03:20:55;102050.19;;;3.69;65.03
78337;BME280;67610;51.588;7.002;2023-02-15T03:23:25;102055.38;;;3.69;65.21
78337;BME280;67610;51.588;7.002;2023-02-15T03:25:58;102051.94;;;3.68;65.04
78337;BME280;67610;51.588;7.002;2023-02-15T03:28:37;102056.31;;;3.68;65.24
78337;BME280;67610;51.588;7.002;2023-02-15T03:31:05;102051.94;;;3.68;65.22
78337;BME280;67610;51.588;7.002;2023-02-15T03:33:32;102052.09;;;3.65;65.24
78337;BME280;67610;51.588;7.002;2023-02-15T03:36:09;102051.25;;;3.65;65.78
78337;BME280;67610;51.588;7.002;2023-02-15T03:38:44;102047.88;;;3.63;65.34
78337;BME280;67610;51.588;7.002;2023-02-15T03:41:14;102049.63;;;3.62;65.21
78337;BME280;67610;51.588;7.002;2023-02-15T03:43:59;102055.81;;;3.60;65.32
78337;BME280;67610;51.588;7.002;2023-02-15T03:48:56;102055.06;;;3.58;65.10
78337;BME280;67610;51.588;7.002;2023-02-15T03:51:27;102056.91;;;3.56;65.05
78337;BME280;67610;51.588;7.002;2023-02-15T03:54:20;102052.53;;;3.56;65.54
78337;BME280;67610;51.588;7.002;2023-02-15T03:57:07;102049.22;;;3.52;65.52
78337;BME280;67610;51.588;7.002;2023-02-15T03:59:53;102050.97;;;3.52;65.13
78337;BME280;67610;51.588;7.002;2023-02-15T04:05:54;102041.78;;;3.45;65.36
78337;BME280;67610;51.588;7.002;2023-02-15T04:08:19;102041.00;;;3.43;65.23
78337;BME280;67610;51.588;7.002;2023-02-15T04:10:45;102043.69;;;3.41;65.32
78337;BME280;67610;51.588;7.002;2023-02-15T04:13:24;102045.34;;;3.42;65.88
78337;BME280;67610;51.588;7.002;2023-02-15T04:15:54;102050.56;;;3.42;65.22
78337;BME280;67610;51.588;7.002;2023-02-15T04:18:33;102052.38;;;3.40;65.43
78337;BME280;67610;51.588;7.002;2023-02-15T04:21:18;102040.38;;;3.38;65.63
78337;BME280;67610;51.588;7.002;2023-02-15T04:24:02;102042.16;;;3.37;65.50
78337;BME280;67610;51.588;7.002;2023-02-15T04:26:46;102038.75;;;3.35;65.41
78337;BME280;67610;51.588;7.002;2023-02-15T04:29:18;102032.75;;;3.35;65.43
78337;BME280;67610;51.588;7.002;2023-02-15T04:31:44;102040.53;;;3.35;65.32
78337;BME280;67610;51.588;7.002;2023-02-15T04:34:10;102043.25;;;3.32;65.26
78337;BME280;67610;51.588;7.002;2023-02-15T04:36:39;102045.94;;;3.30;65.50
78337;BME280;67610;51.588;7.002;2023-02-15T04:39:05;102041.56;;;3.31;65.27
78337;BME280;67610;51.588;7.002;2023-02-15T04:41:32;102043.34;;;3.30;65.54
78337;BME280;67610;51.588;7.002;2023-02-15T04:43:57;102033.00;;;3.29;65.30
78337;BME280;67610;51.588;7.002;2023-02-15T04:46:24;102031.34;;;3.28;65.63
78337;BME280;67610;51.588;7.002;2023-02-15T04:48:50;102033.97;;;3.26;65.68
78337;BME280;67610;51.588;7.002;2023-02-15T04:51:15;102039.13;;;3.28;65.93
78337;BME280;67610;51.588;7.002;2023-02-15T04:53:41;102037.44;;;3.27;65.68
78337;BME280;67610;51.588;7.002;2023-02-15T04:56:06;102035.81;;;3.24;65.55
78337;BME280;67610;51.588;7.002;2023-02-15T04:58:32;102031.53;;;3.23;65.65
78337;BME280;67610;51.588;7.002;2023-02-15T05:00:57;102028.94;;;3.23;65.71
78337;BME280;67610;51.588;7.002;2023-02-15T05:03:23;102030.78;;;3.21;65.89
78337;BME280;67610;51.588;7.002;2023-02-15T05:05:50;102026.41;;;3.22;65.67
78337;BME280;67610;51.588;7.002;2023-02-15T05:08:15;102025.56;;;3.21;65.87
78337;BME280;67610;51.588;7.002;2023-02-15T05:10:41;102015.19;;;3.21;65.80
78337;BME280;67610;51.588;7.002;2023-02-15T05:13:07;102023.88;;;3.20;66.30
78337;BME280;67610;51.588;7.002;2023-02-15T05:15:32;102019.56;;;3.19;65.83
78337;BME280;67610;51.588;7.002;2023-02-15T05:17:57;102015.31;;;3.18;65.95
78337;BME280;67610;51.588;7.002;2023-02-15T05:20:23;102016.16;;;3.19;65.88
78337;BME280;67610;51.588;7.002;2023-02-15T05:22:48;102010.13;;;3.18;65.94
78337;BME280;67610;51.588;7.002;2023-02-15T05:25:14;102007.59;;;3.17;66.04
78337;BME280;67610;51.588;7.002;2023-02-15T05:27:57;102005.91;;;3.16;66.09
78337;BME280;67610;51.588;7.002;2023-02-15T05:30:41;102005.97;;;3.14;66.07
78337;BME280;67610;51.588;7.002;2023-02-15T05:33:07;102002.44;;;3.15;66.12
78337;BME280;67610;51.588;7.002;2023-02-15T05:35:34;101999.00;;;3.15;66.07
78337;BME280;67610;51.588;7.002;2023-02-15T05:37:59;102005.91;;;3.16;66.04
78337;BME280;67610;51.588;7.002;2023-02-15T05:40:25;101996.47;;;3.13;66.14
78337;BME280;67610;51.588;7.002;2023-02-15T05:42:50;102002.53;;;3.14;66.08
78337;BME280;67610;51.588;7.002;2023-02-15T05:45:16;101998.31;;;3.11;66.02
78337;BME280;67610;51.588;7.002;2023-02-15T05:47:42;101988.81;;;3.10;66.01
78337;BME280;67610;51.588;7.002;2023-02-15T05:50:08;101984.59;;;3.08;65.93
78337;BME280;67610;51.588;7.002;2023-02-15T05:52:34;101981.09;;;3.09;66.66
78337;BME280;67610;51.588;7.002;2023-02-15T05:55:00;101986.94;;;3.14;66.64
78337;BME280;67610;51.588;7.002;2023-02-15T05:57:26;101984.25;;;3.15;66.66
78337;BME280;67610;51.588;7.002;2023-02-15T05:59:51;101989.53;;;3.14;66.35
78337;BME280;67610;51.588;7.002;2023-02-15T06:02:17;101986.09;;;3.13;66.37
78337;BME280;67610;51.588;7.002;2023-02-15T06:04:42;101983.63;;;3.10;66.65
78337;BME280;67610;51.588;7.002;2023-02-15T06:07:08;101988.81;;;3.10;66.33
78337;BME280;67610;51.588;7.002;2023-02-15T06:09:33;101990.59;;;3.10;66.36
78337;BME280;67610;51.588;7.002;2023-02-15T06:11:58;101991.41;;;3.10;66.44
78337;BME280;67610;51.588;7.002;2023-02-15T06:14:24;101993.25;;;3.08;66.31
78337;BME280;67610;51.588;7.002;2023-02-15T06:16:49;101989.03;;;3.06;66.21
78337;BME280;67610;51.588;7.002;2023-02-15T06:19:15;102003.81;;;3.05;66.25
78337;BME280;67610;51.588;7.002;2023-02-15T06:21:40;102001.19;;;3.05;66.29
78337;BME280;67610;51.588;7.002;2023-02-15T06:24:08;101998.72;;;3.02;66.23
78337;BME280;67610;51.588;7.002;2023-02-15T06:26:34;102003.97;;;3.01;66.20
78337;BME280;67610;51.588;7.002;2023-02-15T06:28:59;101996.34;;;2.98;66.25
78337;BME280;67610;51.588;7.002;2023-02-15T06:31:25;101997.31;;;2.95;66.31
78337;BME280;67610;51.588;7.002;2023-02-15T06:33:50;101999.00;;;2.96;66.40
78337;BME280;67610;51.588;7.002;2023-02-15T06:36:16;102008.56;;;2.96;66.24
78337;BME280;67610;51.588;7.002;2023-02-15T06:38:41;102002.53;;;2.95;66.30
78337;BME280;67610;51.588;7.002;2023-02-15T06:41:07;102003.41;;;2.94;66.04
78337;BME280;67610;51.588;7.002;2023-02-15T06:43:32;102004.34;;;2.93;66.27
78337;BME280;67610;51.588;7.002;2023-02-15T06:45:59;102012.16;;;2.93;66.29
78337;BME280;67610;51.588;7.002;2023-02-15T06:48:25;102005.88;;;2.97;67.19
78337;BME280;67610;51.588;7.002;2023-02-15T06:50:51;102009.19;;;3.01;66.48
78337;BME280;67610;51.588;7.002;2023-02-15T06:53:17;102004.06;;;2.99;66.37
78337;BME280;67610;51.588;7.002;2023-02-15T06:55:42;102004.06;;;2.99;66.48
78337;BME280;67610;51.588;7.002;2023-02-15T06:58:08;102001.47;;;2.99;66.20
78337;BME280;67610;51.588;7.002;2023-02-15T07:00:33;102007.59;;;2.98;66.22
78337;BME280;67610;51.588;7.002;2023-02-15T07:02:59;102005.03;;;2.97;66.34
78337;BME280;67610;51.588;7.002;2023-02-15T07:05:26;102002.53;;;2.95;66.09
78337;BME280;67610;51.588;7.002;2023-02-15T07:07:57;102008.63;;;2.94;66.24
78337;BME280;67610;51.588;7.002;2023-02-15T07:10:22;102012.06;;;2.95;66.34
78337;BME280;67610;51.588;7.002;2023-02-15T07:12:48;102006.78;;;2.96;66.31
78337;BME280;67610;51.588;7.002;2023-02-15T07:15:15;102003.28;;;2.97;66.25
78337;BME280;67610;51.588;7.002;2023-02-15T07:17:42;101997.19;;;2.98;66.21
78337;BME280;67610;51.588;7.002;2023-02-15T07:20:11;102004.84;;;3.01;66.39
78337;BME280;67610;51.588;7.002;2023-02-15T07:22:37;102000.41;;;3.03;66.53
78337;BME280;67610;51.588;7.002;2023-02-15T07:25:04;102008.06;;;3.06;66.44
78337;BME280;67610;51.588;7.002;2023-02-15T07:27:31;102000.13;;;3.09;66.36
78337;BME280;67610;51.588;7.002;2023-02-15T07:29:57;102000.81;;;3.13;66.44
78337;BME280;67610;51.588;7.002;2023-02-15T07:32:23;101994.59;;;3.17;66.52
78337;BME280;67610;51.588;7.002;2023-02-15T07:34:48;101990.16;;;3.19;66.62
78337;BME280;67610;51.588;7.002;2023-02-15T07:37:13;101989.00;;;3.24;66.33
78337;BME280;67610;51.588;7.002;2023-02-15T07:39:39;101979.25;;;3.29;66.84
78337;BME280;67610;51.588;7.002;2023-02-15T07:42:04;101976.50;;;3.32;66.77
78337;BME280;67610;51.588;7.002;2023-02-15T07:44:30;101968.34;;;3.40;66.58
78337;BME280;67610;51.588;7.002;2023-02-15T07:46:55;101956.72;;;3.47;66.84
78337;BME280;67610;51.588;7.002;2023-02-15T07:49:21;101954.75;;;3.52;66.64
78337;BME280;67610;51.588;7.002;2023-02-15T07:51:47;101964.78;;;3.60;66.74
78337;BME280;67610;51.588;7.002;2023-02-15T07:54:12;101960.97;;;3.67;66.70
78337;BME280;67610;51.588;7.002;2023-02-15T07:56:38;101957.06;;;3.75;66.85
78337;BME280;67610;51.588;7.002;2023-02-15T07:59:03;101948.78;;;3.84;66.85
78337;BME280;67610;51.588;7.002;2023-02-15T08:01:35;101949.19;;;3.94;66.71
78337;BME280;67610;51.588;7.002;2023-02-15T08:04:01;101953.00;;;4.04;67.12
78337;BME280;67610;51.588;7.002;2023-02-15T08:06:30;101947.34;;;4.13;66.81
78337;BME280;67610;51.588;7.002;2023-02-15T08:08:55;101950.97;;;4.26;66.74
78337;BME280;67610;51.588;7.002;2023-02-15T08:11:22;101956.31;;;4.40;66.67
78337;BME280;67610;51.588;7.002;2023-02-15T08:13:53;101949.38;;;4.56;66.88
78337;BME280;67610;51.588;7.002;2023-02-15T08:18:55;101943.53;;;5.00;66.67
78337;BME280;67610;51.588;7.002;2023-02-15T08:21:21;101939.69;;;5.22;66.70
78337;BME280;67610;51.588;7.002;2023-02-15T08:23:47;101937.28;;;5.49;66.67
78337;BME280;67610;51.588;7.002;2023-02-15T08:26:12;101934.59;;;5.80;66.34
78337;BME280;67610;51.588;7.002;2023-02-15T08:28:39;101929.09;;;6.14;66.05
78337;BME280;67610;51.588;7.002;2023-02-15T08:31:09;101925.94;;;6.52;65.44
78337;BME280;67610;51.588;7.002;2023-02-15T08:33:36;101931.88;;;6.96;64.88
78337;BME280;67610;51.588;7.002;2023-02-15T08:38:29;101936.34;;;7.74;62.83
78337;BME280;67610;51.588;7.002;2023-02-15T08:40:55;101928.63;;;8.10;62.27
78337;BME280;67610;51.588;7.002;2023-02-15T08:43:20;101933.50;;;8.41;61.72
78337;BME280;67610;51.588;7.002;2023-02-15T08:45:46;101924.22;;;8.74;61.19
78337;BME280;67610;51.588;7.002;2023-02-15T08:48:11;101919.41;;;9.04;60.46
78337;BME280;67610;51.588;7.002;2023-02-15T08:50:37;101923.00;;;9.27;59.79
78337;BME280;67610;51.588;7.002;2023-02-15T08:53:02;101917.63;;;9.52;59.42
78337;BME280;67610;51.588;7.002;2023-02-15T08:55:28;101913.41;;;9.73;58.90
78337;BME280;67610;51.588;7.002;2023-02-15T08:57:54;101918.84;;;9.94;58.31
78337;BME280;67610;51.588;7.002;2023-02-15T09:00:21;101919.75;;;10.16;57.88
78337;BME280;67610;51.588;7.002;2023-02-15T09:02:48;101915.94;;;10.31;57.34
78337;BME280;67610;51.588;7.002;2023-02-15T09:05:13;101903.38;;;10.35;55.93
78337;BME280;67610;51.588;7.002;2023-02-15T09:07:39;101909.97;;;10.40;55.85
78337;BME280;67610;51.588;7.002;2023-02-15T09:10:05;101912.84;;;10.37;55.33
78337;BME280;67610;51.588;7.002;2023-02-15T09:12:31;101916.19;;;10.39;55.67
78337;BME280;67610;51.588;7.002;2023-02-15T09:14:56;101909.84;;;10.42;55.65
78337;BME280;67610;51.588;7.002;2023-02-15T09:17:22;101908.41;;;10.49;56.00
78337;BME280;67610;51.588;7.002;2023-02-15T09:19:47;101905.28;;;10.55;55.37
78337;BME280;67610;51.588;7.002;2023-02-15T09:22:12;101899.56;;;10.61;55.50
78337;BME280;67610;51.588;7.002;2023-02-15T09:24:38;101901.22;;;10.62;54.79
78337;BME280;67610;51.588;7.002;2023-02-15T09:27:03;101902.28;;;10.60;54.30
78337;BME280;67610;51.588;7.002;2023-02-15T09:29:29;101909.00;;;10.52;53.52
78337;BME280;67610;51.588;7.002;2023-02-15T09:31:54;101912.13;;;10.46;53.96
78337;BME280;67610;51.588;7.002;2023-02-15T09:34:21;101913.06;;;10.45;53.86
78337;BME280;67610;51.588;7.002;2023-02-15T09:36:48;101906.84;;;10.46;53.86
78337;BME280;67610;51.588;7.002;2023-02-15T09:39:25;101908.06;;;10.53;53.29
78337;BME280;67610;51.588;7.002;2023-02-15T09:55:43;101908.41;;;12.19;50.02
78337;BME280;67610;51.588;7.002;2023-02-15T10:09:52;101919.50;;;13.80;48.11
78337;BME280;67610;51.588;7.002;2023-02-15T10:15:20;101917.16;;;14.42;45.31
78337;BME280;67610;51.588;7.002;2023-02-15T10:18:53;101907.66;;;14.77;45.05
78337;BME280;67610;51.588;7.002;2023-02-15T10:21:10;101907.06;;;15.10;43.27
78337;BME280;67610;51.588;7.002;2023-02-15T10:26:46;101903.34;;;15.38;42.47
78337;BME280;67610;51.588;7.002;2023-02-15T10:29:39;101900.47;;;15.67;42.84
78337;BME280;67610;51.588;7.002;2023-02-15T10:32:21;101897.84;;;15.92;41.55
78337;BME280;67610;51.588;7.002;2023-02-15T10:35:12;101890.16;;;16.07;40.35
78337;BME280;67610;51.588;7.002;2023-02-15T10:37:49;101897.69;;;16.20;40.96
78337;BME280;67610;51.588;7.002;2023-02-15T10:40:27;101894.63;;;16.32;41.37
78337;BME280;67610;51.588;7.002;2023-02-15T10:56:16;101878.66;;;17.00;39.13
78337;BME280;67610;51.588;7.002;2023-02-15T11:01:42;101881.84;;;17.27;38.50
78337;BME280;67610;51.588;7.002;2023-02-15T11:04:38;101878.50;;;17.41;36.05
78337;BME280;67610;51.588;7.002;2023-02-15T11:07:24;101880.19;;;17.51;37.20
78337;BME280;67610;51.588;7.002;2023-02-15T11:09:56;101876.72;;;17.58;36.97
78337;BME280;67610;51.588;7.002;2023-02-15T11:12:28;101875.88;;;17.50;37.13
78337;BME280;67610;51.588;7.002;2023-02-15T11:15:19;101868.38;;;17.37;35.29
78337;BME280;67610;51.588;7.002;2023-02-15T11:17:53;101863.03;;;17.37;36.81
78337;BME280;67610;51.588;7.002;2023-02-15T11:20:29;101867.53;;;17.28;36.36
78337;BME280;67610;51.588;7.002;2023-02-15T11:22:56;101873.00;;;17.19;36.13
78337;BME280;67610;51.588;7.002;2023-02-15T11:25:30;101862.53;;;17.01;36.09
78337;BME280;67610;51.588;7.002;2023-02-15T11:27:56;101877.09;;;16.89;36.44
78337;BME280;67610;51.588;7.002;2023-02-15T11:30:25;101871.09;;;16.71;36.61
78337;BME280;67610;51.588;7.002;2023-02-15T11:32:56;101867.03;;;16.59;35.89
78337;BME280;67610;51.588;7.002;2023-02-15T11:35:40;101867.44;;;16.38;35.86
78337;BME280;67610;51.588;7.002;2023-02-15T11:38:22;101861.84;;;16.16;36.44
78337;BME280;67610;51.588;7.002;2023-02-15T11:40:55;101866.88;;;16.01;36.71
78337;BME280;67610;51.588;7.002;2023-02-15T11:46:16;101850.84;;;15.77;37.45
78337;BME280;67610;51.588;7.002;2023-02-15T11:48:44;101855.28;;;15.76;37.35
78337;BME280;67610;51.588;7.002;2023-02-15T11:51:13;101849.09;;;15.68;36.88
78337;BME280;67610;51.588;7.002;2023-02-15T11:53:41;101840.19;;;15.51;36.95
78337;BME280;67610;51.588;7.002;2023-02-15T11:56:16;101842.06;;;15.41;37.23
78337;BME280;67610;51.588;7.002;2023-02-15T11:58:49;101846.31;;;15.34;37.63
78337;BME280;67610;51.588;7.002;2023-02-15T12:03:57;101842.09;;;15.23;37.90
78337;BME280;67610;51.588;7.002;2023-02-15T12:06:43;101837.53;;;15.16;38.24
78337;BME280;67610;51.588;7.002;2023-02-15T12:09:40;101835.19;;;15.13;37.63
78337;BME280;67610;51.588;7.002;2023-02-15T12:14:48;101828.88;;;14.96;38.50
78337;BME280;67610;51.588;7.002;2023-02-15T12:17:15;101824.59;;;14.95;38.89
78337;BME280;67610;51.588;7.002;2023-02-15T12:19:41;101819.44;;;14.94;38.31
78337;BME280;67610;51.588;7.002;2023-02-15T12:22:20;101819.97;;;14.80;37.99
78337;BME280;67610;51.588;7.002;2023-02-15T12:24:47;101820.41;;;14.75;38.12
78337;BME280;67610;51.588;7.002;2023-02-15T12:27:34;101808.59;;;14.69;38.33
78337;BME280;67610;51.588;7.002;2023-02-15T12:30:06;101812.22;;;14.68;38.60
78337;BME280;67610;51.588;7.002;2023-02-15T12:32:47;101799.56;;;14.62;38.70
78337;BME280;67610;51.588;7.002;2023-02-15T12:35:18;101806.16;;;14.58;39.16
78337;BME280;67610;51.588;7.002;2023-02-15T12:37:55;101799.63;;;14.53;38.79
78337;BME280;67610;51.588;7.002;2023-02-15T12:40:27;101800.47;;;14.53;39.16
78337;BME280;67610;51.588;7.002;2023-02-15T12:42:53;101795.88;;;14.55;38.77
78337;BME280;67610;51.588;7.002;2023-02-15T12:45:23;101799.63;;;14.53;38.67
78337;BME280;67610;51.588;7.002;2023-02-15T12:50:38;101796.47;;;14.49;38.70
78337;BME280;67610;51.588;7.002;2023-02-15T12:53:16;101790.50;;;14.47;38.43
78337;BME280;67610;51.588;7.002;2023-02-15T12:56:10;101784.94;;;14.41;38.65
78337;BME280;67610;51.588;7.002;2023-02-15T12:58:40;101783.13;;;14.41;39.04
78337;BME280;67610;51.588;7.002;2023-02-15T13:04:01;101778.34;;;14.18;37.91
78337;BME280;67610;51.588;7.002;2023-02-15T13:06:29;101778.06;;;14.21;39.01
78337;BME280;67610;51.588;7.002;2023-02-15T13:09:05;101765.50;;;14.23;39.03
78337;BME280;67610;51.588;7.002;2023-02-15T13:11:31;101776.31;;;14.29;38.73
78337;BME280;67610;51.588;7.002;2023-02-15T13:14:02;101771.19;;;14.28;38.70
78337;BME280;67610;51.588;7.002;2023-02-15T13:16:35;101770.78;;;14.23;38.55
78337;BME280;67610;51.588;7.002;2023-02-15T13:19:06;101772.19;;;14.27;38.62
78337;BME280;67610;51.588;7.002;2023-02-15T13:21:39;101773.00;;;14.27;36.77
78337;BME280;67610;51.588;7.002;2023-02-15T13:24:06;101754.53;;;14.18;37.91
78337;BME280;67610;51.588;7.002;2023-02-15T13:26:36;101765.94;;;14.18;38.07
78337;BME280;67610;51.588;7.002;2023-02-15T13:29:28;101756.38;;;14.17;37.40
78337;BME280;67610;51.588;7.002;2023-02-15T13:31:57;101749.53;;;14.15;38.41
78337;BME280;67610;51.588;7.002;2023-02-15T13:34:25;101746.34;;;14.11;38.30
78337;BME280;67610;51.588;7.002;2023-02-15T13:37:17;101741.44;;;14.16;38.05
78337;BME280;67610;51.588;7.002;2023-02-15T13:39:49;101742.81;;;14.20;38.46
78337;BME280;67610;51.588;7.002;2023-02-15T13:42:36;101739.88;;;14.23;37.65
78337;BME280;67610;51.588;7.002;2023-02-15T13:52:56;101724.06;;;14.14;37.82
78337;BME280;67610;51.588;7.002;2023-02-15T14:01:06;101710.94;;;14.22;37.53
78337;BME280;67610;51.588;7.002;2023-02-15T14:03:51;101712.06;;;14.19;37.23
78337;BME280;67610;51.588;7.002;2023-02-15T14:07:02;101710.09;;;14.21;37.43
78337;BME280;67610;51.588;7.002;2023-02-15T14:10:00;101706.16;;;14.25;36.90
78337;BME280;67610;51.588;7.002;2023-02-15T14:15:11;101703.38;;;14.27;36.16
78337;BME280;67610;51.588;7.002;2023-02-15T14:17:49;101705.88;;;14.28;37.03
78337;BME280;67610;51.588;7.002;2023-02-15T14:23:29;101711.03;;;14.30;37.15
78337;BME280;67610;51.588;7.002;2023-02-15T14:29:28;101709.75;;;14.34;37.00
78337;BME280;67610;51.588;7.002;2023-02-15T14:32:04;101708.94;;;14.33;37.34
78337;BME280;67610;51.588;7.002;2023-02-15T14:34:42;101716.19;;;14.31;37.17
78337;BME280;67610;51.588;7.002;2023-02-15T14:37:11;101710.91;;;14.31;37.42
78337;BME280;67610;51.588;7.002;2023-02-15T14:43:27;101703.50;;;14.25;36.67
78337;BME280;67610;51.588;7.002;2023-02-15T14:46:15;101706.91;;;14.18;37.13
78337;BME280;67610;51.588;7.002;2023-02-15T14:51:54;101698.03;;;14.09;36.65
78337;BME280;67610;51.588;7.002;2023-02-15T15:07:34;101679.94;;;13.87;38.32
78337;BME280;67610;51.588;7.002;2023-02-15T15:10:29;101682.59;;;13.87;38.26
78337;BME280;67610;51.588;7.002;2023-02-15T15:12:58;101673.25;;;13.83;38.47
78337;BME280;67610;51.588;7.002;2023-02-15T15:15:46;101679.53;;;13.82;38.40
78337;BME280;67610;51.588;7.002;2023-02-15T15:18:47;101675.38;;;13.79;38.50
78337;BME280;67610;51.588;7.002;2023-02-15T15:27:58;101681.09;;;13.75;38.57
78337;BME280;67610;51.588;7.002;2023-02-15T15:35:53;101677.97;;;13.62;38.51
78337;BME280;67610;51.588;7.002;2023-02-15T15:41:48;101682.03;;;13.56;38.58
78337;BME280;67610;51.588;7.002;2023-02-15T15:49:59;101678.44;;;13.48;38.87
78337;BME280;67610;51.588;7.002;2023-02-15T15:52:25;101676.94;;;13.45;38.60
78337;BME280;67610;51.588;7.002;2023-02-15T15:54:57;101678.72;;;13.45;39.00
78337;BME280;67610;51.588;7.002;2023-02-15T15:57:34;101681.38;;;13.45;39.56